createdAt,value
2023-03-11T00:02:49.137Z,17.20
2023-03-11T00:05:53.009Z,17.30
2023-03-11T00:08:55.146Z,17.20
2023-03-11T00:11:58.358Z,17.30
2023-03-11T00:15:00.607Z,17.30
2023-03-11T00:18:02.939Z,17.30
2023-03-11T00:21:06.743Z,17.30
2023-03-11T00:24:11.002Z,17.30
2023-03-11T00:27:13.496Z,17.30
2023-03-11T00:30:17.064Z,17.30
2023-03-11T00:33:20.854Z,17.30
2023-03-11T00:36:34.045Z,17.30
2023-03-11T00:39:37.703Z,17.30
2023-03-11T00:42:40.090Z,17.30
2023-03-11T00:45:42.695Z,17.30
2023-03-11T00:48:44.865Z,17.30
2023-03-11T00:51:47.454Z,17.30
2023-03-11T00:54:49.697Z,17.30
2023-03-11T00:57:54.212Z,17.30
2023-03-11T01:00:56.247Z,17.30
2023-03-11T01:03:58.483Z,17.30
2023-03-11T01:07:00.823Z,17.30
2023-03-11T01:10:04.023Z,17.30
2023-03-11T01:13:07.083Z,17.30
2023-03-11T01:16:09.757Z,17.20
2023-03-11T01:19:12.074Z,17.20
2023-03-11T01:22:14.519Z,17.20
2023-03-11T01:25:19.801Z,17.20
2023-03-11T01:28:22.084Z,17.20
2023-03-11T01:31:24.317Z,17.20
2023-03-11T01:34:27.446Z,17.20
2023-03-11T01:37:29.707Z,17.30
2023-03-11T01:40:31.764Z,17.30
2023-03-11T01:43:46.494Z,17.20
2023-03-11T01:46:54.519Z,17.20
2023-03-11T01:49:57.009Z,17.20
2023-03-11T01:52:59.294Z,17.20
2023-03-11T01:56:03.584Z,17.20
2023-03-11T01:59:08.150Z,17.20
2023-03-11T02:02:24.560Z,17.10
2023-03-11T02:05:26.876Z,17.10
2023-03-11T02:08:30.305Z,17.10
2023-03-11T02:11:32.539Z,17.10
2023-03-11T02:14:36.694Z,17.10
2023-03-11T02:17:41.118Z,17.10
2023-03-11T02:20:52.765Z,17.10
2023-03-11T02:24:08.403Z,17.10
2023-03-11T02:27:14.243Z,17.10
2023-03-11T02:30:18.198Z,17.10
2023-03-11T02:33:20.626Z,17.10
2023-03-11T02:36:41.105Z,17.10
2023-03-11T02:39:49.455Z,17.10
2023-03-11T02:42:56.240Z,17.10
2023-03-11T02:45:59.932Z,17.20
2023-03-11T02:49:02.934Z,17.20
2023-03-11T02:52:05.540Z,17.20
2023-03-11T02:55:08.862Z,17.20
2023-03-11T02:58:12.005Z,17.20
2023-03-11T03:01:14.257Z,17.20
2023-03-11T03:04:16.464Z,17.20
2023-03-11T03:07:18.608Z,17.20
2023-03-11T03:10:22.556Z,17.20
2023-03-11T03:13:25.150Z,17.20
2023-03-11T03:16:27.366Z,17.20
2023-03-11T03:19:31.294Z,17.20
2023-03-11T03:22:34.621Z,17.20
2023-03-11T03:25:37.074Z,17.20
2023-03-11T03:28:39.325Z,17.20
2023-03-11T03:31:41.475Z,17.20
2023-03-11T03:34:44.238Z,17.20
2023-03-11T03:37:46.578Z,17.20
2023-03-11T03:40:49.065Z,17.20
2023-03-11T03:43:51.145Z,17.20
2023-03-11T03:46:53.247Z,17.20
2023-03-11T03:49:55.822Z,17.20
2023-03-11T03:52:58.015Z,17.20
2023-03-11T03:56:12.073Z,17.20
2023-03-11T03:59:14.390Z,17.20
2023-03-11T04:02:16.509Z,17.20
2023-03-11T04:05:18.859Z,17.20
2023-03-11T04:08:21.475Z,17.20
2023-03-11T04:11:23.668Z,17.20
2023-03-11T04:14:36.326Z,17.20
2023-03-11T04:17:39.423Z,17.20
2023-03-11T04:20:44.847Z,17.30
2023-03-11T04:23:47.895Z,17.30
2023-03-11T04:26:50.076Z,17.30
2023-03-11T04:29:52.408Z,17.30
2023-03-11T04:32:54.604Z,17.20
2023-03-11T04:35:57.049Z,17.30
2023-03-11T04:38:59.262Z,17.30
2023-03-11T04:42:03.899Z,17.30
2023-03-11T04:45:07.717Z,17.30
2023-03-11T04:48:10.231Z,17.30
2023-03-11T04:51:12.367Z,17.30
2023-03-11T04:54:14.648Z,17.40
2023-03-11T04:57:16.794Z,17.40
2023-03-11T05:00:24.810Z,17.40
2023-03-11T05:03:27.034Z,17.40
2023-03-11T05:06:29.659Z,17.40
2023-03-11T05:09:32.655Z,17.30
2023-03-11T05:12:34.848Z,17.40
2023-03-11T05:15:45.218Z,17.40
2023-03-11T05:18:49.130Z,17.40
2023-03-11T05:21:52.546Z,17.40
2023-03-11T05:24:54.717Z,17.30
2023-03-11T05:27:57.338Z,17.40
2023-03-11T05:30:59.443Z,17.30
2023-03-11T05:34:01.749Z,17.40
2023-03-11T05:37:04.204Z,17.40
2023-03-11T05:40:08.097Z,17.30
2023-03-11T05:43:10.381Z,17.30
2023-03-11T05:46:13.961Z,17.30
2023-03-11T05:49:16.171Z,17.30
2023-03-11T05:52:18.284Z,17.30
2023-03-11T05:55:20.872Z,17.20
2023-03-11T05:58:23.142Z,17.20
2023-03-11T06:01:25.391Z,17.20
2023-03-11T06:04:28.002Z,17.20
2023-03-11T06:07:30.185Z,17.20
2023-03-11T06:10:32.428Z,17.20
2023-03-11T06:13:35.020Z,17.20
2023-03-11T06:16:37.136Z,17.10
2023-03-11T06:19:39.641Z,17.10
2023-03-11T06:22:41.931Z,17.10
2023-03-11T06:25:44.205Z,17.10
2023-03-11T06:28:48.876Z,17.10
2023-03-11T06:31:51.666Z,17.10
2023-03-11T06:34:53.987Z,17.10
2023-03-11T06:37:56.314Z,17.10
2023-03-11T06:41:02.984Z,17.10
2023-03-11T06:44:05.328Z,17.10
2023-03-11T06:47:07.510Z,17.10
2023-03-11T06:50:11.069Z,17.10
2023-03-11T06:53:13.239Z,17.10
2023-03-11T06:56:15.441Z,17.10
2023-03-11T06:59:17.608Z,17.20
2023-03-11T07:02:22.956Z,17.20
2023-03-11T07:05:26.561Z,17.10
2023-03-11T07:08:29.787Z,17.10
2023-03-11T07:11:31.967Z,17.10
2023-03-11T07:14:34.139Z,17.10
2023-03-11T07:17:36.394Z,17.20
2023-03-11T07:20:38.653Z,17.10
2023-03-11T07:23:40.887Z,17.10
2023-03-11T07:26:44.520Z,17.10
2023-03-11T07:29:46.923Z,17.10
2023-03-11T07:32:52.397Z,17.10
2023-03-11T07:35:54.745Z,17.00
2023-03-11T07:39:04.486Z,17.10
2023-03-11T07:42:06.824Z,17.00
2023-03-11T07:45:10.444Z,17.00
2023-03-11T07:48:12.600Z,17.10
2023-03-11T07:51:17.439Z,17.10
2023-03-11T07:54:19.772Z,17.20
2023-03-11T07:57:21.946Z,17.20
2023-03-11T08:00:25.036Z,17.30
2023-03-11T08:03:27.238Z,17.40
2023-03-11T08:06:32.141Z,17.40
2023-03-11T08:09:35.604Z,17.40
2023-03-11T08:12:38.936Z,17.50
2023-03-11T08:15:41.283Z,17.50
2023-03-11T08:18:44.343Z,17.50
2023-03-11T08:21:46.937Z,17.60
2023-03-11T08:24:53.103Z,17.60
2023-03-11T08:27:55.567Z,17.70
2023-03-11T08:30:57.787Z,17.60
2023-03-11T08:34:02.746Z,17.70
2023-03-11T08:37:05.210Z,17.70
2023-03-11T08:40:08.114Z,17.70
2023-03-11T08:43:13.955Z,17.70
2023-03-11T08:46:22.155Z,17.80
2023-03-11T08:49:24.631Z,17.90
2023-03-11T08:52:26.775Z,18.00
2023-03-11T08:55:29.522Z,18.00
2023-03-11T08:58:31.837Z,18.10
2023-03-11T09:01:33.998Z,18.20
2023-03-11T09:04:36.241Z,18.30
2023-03-11T09:07:38.749Z,18.40
2023-03-11T09:10:41.296Z,18.50
2023-03-11T09:13:45.272Z,18.60
2023-03-11T09:16:47.409Z,18.70
2023-03-11T09:19:49.774Z,18.70
2023-03-11T09:22:52.398Z,18.80
2023-03-11T09:25:54.638Z,18.80
2023-03-11T09:28:56.776Z,18.90
2023-03-11T09:31:59.397Z,18.90
2023-03-11T09:35:01.558Z,18.90
2023-03-11T09:38:03.721Z,19.00
2023-03-11T09:41:17.625Z,19.20
2023-03-11T09:44:22.863Z,19.40
2023-03-11T09:47:38.706Z,19.60
2023-03-11T09:50:56.134Z,19.60
2023-03-11T09:54:06.052Z,19.70
2023-03-11T09:57:21.544Z,20.00
2023-03-11T10:00:25.212Z,20.10
2023-03-11T10:03:29.691Z,20.10
2023-03-11T10:06:31.906Z,20.30
2023-03-11T10:09:41.037Z,20.40
2023-03-11T10:12:48.751Z,20.60
2023-03-11T10:16:29.418Z,20.60
2023-03-11T10:19:37.581Z,20.70
2023-03-11T10:23:06.741Z,20.80
2023-03-11T10:26:15.232Z,20.90
2023-03-11T10:29:26.562Z,20.90
2023-03-11T10:32:48.329Z,21.00
2023-03-11T10:35:57.069Z,20.90
2023-03-11T10:38:59.747Z,20.90
2023-03-11T10:42:14.610Z,20.90
2023-03-11T10:45:16.911Z,21.00
2023-03-11T10:48:20.636Z,21.10
2023-03-11T10:51:27.443Z,21.30
2023-03-11T10:54:39.811Z,21.70
2023-03-11T10:57:42.018Z,22.10
2023-03-11T11:00:44.821Z,22.60
2023-03-11T11:03:50.391Z,22.90
2023-03-11T11:06:52.519Z,23.40
2023-03-11T11:10:16.609Z,24.10
2023-03-11T11:13:22.381Z,24.80
2023-03-11T11:16:25.357Z,25.60
2023-03-11T11:19:29.712Z,26.20
2023-03-11T11:22:32.388Z,26.70
2023-03-11T11:25:41.250Z,26.70
2023-03-11T11:28:44.503Z,26.80
2023-03-11T11:31:47.365Z,26.70
2023-03-11T11:34:59.918Z,26.70
2023-03-11T11:38:04.404Z,26.50
2023-03-11T11:41:06.919Z,26.70
2023-03-11T11:44:15.994Z,26.60
2023-03-11T11:47:22.789Z,26.50
2023-03-11T11:50:34.849Z,26.30
2023-03-11T11:53:50.069Z,26.20
2023-03-11T11:56:52.169Z,26.30
2023-03-11T11:59:56.463Z,26.50
2023-03-11T12:03:37.006Z,26.30
2023-03-11T12:07:18.723Z,26.50
2023-03-11T12:10:39.672Z,26.50
2023-03-11T12:14:07.674Z,26.40
2023-03-11T12:17:12.970Z,26.40
2023-03-11T12:20:33.418Z,26.50
2023-03-11T12:23:47.791Z,26.50
2023-03-11T12:26:52.869Z,26.60
2023-03-11T12:30:16.693Z,26.30
2023-03-11T12:33:38.967Z,26.20
2023-03-11T12:36:45.889Z,26.20
2023-03-11T12:39:48.085Z,26.20
2023-03-11T12:42:50.281Z,26.30
2023-03-11T12:45:55.729Z,26.30
2023-03-11T12:49:13.272Z,26.20
2023-03-11T12:52:26.716Z,25.90
2023-03-11T12:55:33.168Z,25.70
2023-03-11T12:59:23.570Z,25.30
2023-03-11T13:02:47.841Z,25.00
2023-03-11T13:06:14.574Z,24.60
2023-03-11T13:09:17.843Z,24.30
2023-03-11T13:12:41.737Z,24.10
2023-03-11T13:15:44.425Z,24.10
2023-03-11T13:18:48.941Z,24.20
2023-03-11T13:21:51.050Z,24.20
2023-03-11T13:24:53.320Z,24.30
2023-03-11T13:28:20.392Z,24.30
2023-03-11T13:31:57.544Z,24.40
2023-03-11T13:35:32.281Z,24.30
2023-03-11T13:38:34.501Z,24.30
2023-03-11T13:41:38.269Z,24.30
2023-03-11T13:44:42.070Z,24.30
2023-03-11T13:47:49.711Z,24.40
2023-03-11T13:51:05.262Z,24.40
2023-03-11T13:54:33.519Z,24.30
2023-03-11T13:57:38.105Z,24.30
2023-03-11T14:00:49.758Z,24.10
2023-03-11T14:03:52.052Z,24.00
2023-03-11T14:06:54.272Z,23.90
2023-03-11T14:10:16.910Z,23.90
2023-03-11T14:13:20.221Z,23.90
2023-03-11T14:16:36.184Z,23.90
2023-03-11T14:19:38.778Z,23.90
2023-03-11T14:22:44.016Z,23.80
2023-03-11T14:25:46.657Z,23.60
2023-03-11T14:28:52.549Z,23.40
2023-03-11T14:31:54.714Z,23.20
2023-03-11T14:34:57.906Z,23.30
2023-03-11T14:38:00.589Z,23.30
2023-03-11T14:41:07.182Z,23.20
2023-03-11T14:44:10.137Z,23.20
2023-03-11T14:47:32.485Z,23.20
2023-03-11T14:50:35.800Z,23.00
2023-03-11T14:53:48.328Z,22.90
2023-03-11T14:57:01.736Z,22.70
2023-03-11T15:00:08.233Z,22.70
2023-03-11T15:03:31.185Z,22.60
2023-03-11T15:06:36.189Z,22.60
2023-03-11T15:09:41.339Z,22.40
2023-03-11T15:12:46.235Z,22.30
2023-03-11T15:15:57.704Z,22.40
2023-03-11T15:19:21.812Z,22.50
2023-03-11T15:22:41.140Z,22.50
2023-03-11T15:25:50.239Z,22.70
2023-03-11T15:29:16.799Z,22.50
2023-03-11T15:32:39.443Z,22.40
2023-03-11T15:35:49.026Z,22.40
2023-03-11T15:39:11.354Z,22.40
2023-03-11T15:42:18.640Z,22.30
2023-03-11T15:45:21.539Z,22.20
2023-03-11T15:48:24.075Z,22.20
2023-03-11T15:51:26.265Z,22.00
2023-03-11T15:54:29.408Z,22.00
2023-03-11T15:57:31.687Z,22.00
2023-03-11T16:00:35.737Z,22.10
2023-03-11T16:03:39.339Z,22.10
2023-03-11T16:06:42.479Z,22.00
2023-03-11T16:09:45.232Z,22.00
2023-03-11T16:12:47.468Z,22.10
2023-03-11T16:15:49.720Z,22.00
2023-03-11T16:18:52.067Z,22.00
2023-03-11T16:21:54.162Z,21.90
2023-03-11T16:24:56.313Z,21.90
2023-03-11T16:27:58.892Z,22.00
2023-03-11T16:31:01.058Z,21.90
2023-03-11T16:34:03.310Z,22.00
2023-03-11T16:37:07.195Z,21.90
2023-03-11T16:40:17.313Z,21.80
2023-03-11T16:43:19.599Z,21.80
2023-03-11T16:46:21.911Z,21.80
2023-03-11T16:49:24.126Z,21.60
2023-03-11T16:52:26.248Z,21.40
2023-03-11T16:55:29.237Z,21.50
2023-03-11T16:58:31.394Z,21.50
2023-03-11T17:01:39.356Z,21.40
2023-03-11T17:04:41.640Z,21.20
2023-03-11T17:07:43.907Z,21.30
2023-03-11T17:10:46.841Z,21.10
2023-03-11T17:13:50.607Z,21.10
2023-03-11T17:16:53.000Z,20.90
2023-03-11T17:19:55.154Z,20.90
2023-03-11T17:22:58.281Z,20.90
2023-03-11T17:26:01.711Z,21.00
2023-03-11T17:29:04.882Z,21.00
2023-03-11T17:32:07.665Z,20.90
2023-03-11T17:35:10.124Z,20.90
2023-03-11T17:38:12.185Z,20.80
2023-03-11T17:41:17.540Z,20.70
2023-03-11T17:44:20.383Z,20.70
2023-03-11T17:47:26.235Z,20.70
2023-03-11T17:50:28.517Z,20.70
2023-03-11T17:53:30.603Z,20.60
2023-03-11T17:56:32.754Z,20.60
2023-03-11T17:59:34.915Z,20.60
2023-03-11T18:02:37.105Z,20.50
2023-03-11T18:05:39.927Z,20.40
2023-03-11T18:08:42.237Z,20.30
2023-03-11T18:11:44.469Z,20.20
2023-03-11T18:14:46.577Z,20.20
2023-03-11T18:17:49.136Z,20.10
2023-03-11T18:20:51.294Z,20.10
2023-03-11T18:23:55.461Z,20.00
2023-03-11T18:26:57.569Z,20.00
2023-03-11T18:30:02.070Z,20.00
2023-03-11T18:33:04.388Z,19.90
2023-03-11T18:36:17.598Z,19.80
2023-03-11T18:39:20.514Z,19.70
2023-03-11T18:42:22.862Z,19.70
2023-03-11T18:45:24.968Z,19.50
2023-03-11T18:48:27.639Z,19.50
2023-03-11T18:51:31.849Z,19.40
2023-03-11T18:54:34.131Z,19.40
2023-03-11T18:57:36.279Z,19.40
2023-03-11T19:00:38.394Z,19.40
2023-03-11T19:03:41.634Z,19.30
2023-03-11T19:06:43.815Z,19.30
2023-03-11T19:09:48.338Z,19.20
2023-03-11T19:12:50.661Z,19.10
2023-03-11T19:15:53.696Z,19.10
2023-03-11T19:18:55.936Z,19.10
2023-03-11T19:21:58.074Z,19.10
2023-03-11T19:25:00.288Z,19.00
2023-03-11T19:28:02.718Z,19.00
2023-03-11T19:31:05.692Z,18.90
2023-03-11T19:34:07.945Z,18.90
2023-03-11T19:37:10.195Z,18.80
2023-03-11T19:40:12.906Z,18.70
2023-03-11T19:43:15.201Z,18.70
2023-03-11T19:46:21.785Z,18.60
2023-03-11T19:49:24.123Z,18.60
2023-03-11T19:52:26.225Z,18.50
2023-03-11T19:55:28.385Z,18.40
2023-03-11T19:58:31.662Z,18.40
2023-03-11T20:01:33.948Z,18.30
2023-03-11T20:04:36.095Z,18.30
2023-03-11T20:07:38.354Z,18.20
2023-03-11T20:10:43.725Z,18.20
2023-03-11T20:13:45.827Z,18.20
2023-03-11T20:16:48.084Z,18.10
2023-03-11T20:19:50.404Z,18.10
2023-03-11T20:22:52.487Z,18.10
2023-03-11T20:25:54.679Z,18.10
2023-03-11T20:28:57.135Z,18.00
2023-03-11T20:31:59.411Z,18.00
2023-03-11T20:35:01.679Z,18.00
2023-03-11T20:38:04.115Z,18.00
2023-03-11T20:41:08.285Z,17.90
2023-03-11T20:44:13.377Z,17.80
2023-03-11T20:47:15.585Z,17.80
2023-03-11T20:50:18.080Z,17.80
2023-03-11T20:53:20.342Z,17.80
2023-03-11T20:56:24.918Z,17.70
2023-03-11T20:59:27.214Z,17.70
2023-03-11T21:02:31.168Z,17.70
2023-03-11T21:05:37.294Z,17.60
2023-03-11T21:08:39.472Z,17.70
2023-03-11T21:11:42.550Z,17.60
2023-03-11T21:14:44.774Z,17.60
2023-03-11T21:17:47.053Z,17.50
2023-03-11T21:20:49.411Z,17.50
2023-03-11T21:23:51.660Z,17.50
2023-03-11T21:26:53.927Z,17.50
2023-03-11T21:29:57.374Z,17.50
2023-03-11T21:32:59.786Z,17.50
2023-03-11T21:36:02.083Z,17.50
2023-03-11T21:39:05.343Z,17.50
2023-03-11T21:42:07.727Z,17.50
2023-03-11T21:45:10.743Z,17.40
2023-03-11T21:48:14.342Z,17.50
2023-03-11T21:51:18.767Z,17.40
2023-03-11T21:54:22.013Z,17.40
2023-03-11T21:57:24.873Z,17.40
2023-03-11T22:00:27.423Z,17.40
2023-03-11T22:03:30.868Z,17.40
2023-03-11T22:06:33.673Z,17.30
2023-03-11T22:09:36.199Z,17.30
2023-03-11T22:12:38.536Z,17.20
2023-03-11T22:15:41.105Z,17.30
2023-03-11T22:18:43.898Z,17.30
2023-03-11T22:21:46.560Z,17.20
2023-03-11T22:24:48.789Z,17.20
2023-03-11T22:27:50.991Z,17.20
2023-03-11T22:30:53.501Z,17.20
2023-03-11T22:33:55.717Z,17.10
2023-03-11T22:36:58.244Z,17.10
2023-03-11T22:40:00.512Z,17.10
2023-03-11T22:43:02.709Z,17.10
2023-03-11T22:46:06.511Z,17.10
2023-03-11T22:49:08.707Z,17.10
2023-03-11T22:52:11.023Z,17.20
2023-03-11T22:55:13.391Z,17.10
2023-03-11T22:58:16.342Z,17.10
2023-03-11T23:01:19.212Z,17.20
2023-03-11T23:04:21.694Z,17.20
2023-03-11T23:07:24.487Z,17.20
2023-03-11T23:10:27.250Z,17.20
2023-03-11T23:13:30.736Z,17.30
2023-03-11T23:16:33.021Z,17.30
2023-03-11T23:19:35.205Z,17.30
2023-03-11T23:22:38.517Z,17.30
2023-03-11T23:25:41.226Z,17.30
2023-03-11T23:28:43.513Z,17.30
2023-03-11T23:31:45.790Z,17.20
2023-03-11T23:34:48.179Z,17.20
2023-03-11T23:37:51.618Z,17.10
2023-03-11T23:40:53.848Z,17.10
2023-03-11T23:43:56.140Z,17.00
2023-03-11T23:46:58.346Z,17.00
2023-03-11T23:50:00.635Z,16.90
2023-03-11T23:53:02.802Z,16.90
2023-03-11T23:56:20.772Z,16.90
2023-03-11T23:59:23.045Z,16.90
